sensor_id;sensor_type;location;lat;lon;timestamp;temperature;humidity
41904;DHT22;27586;51.124;4.182;2023-09-19T00:00:38;15.40;99.90
41904;DHT22;27586;51.124;4.182;2023-09-19T00:03:06;15.30;99.90
41904;DHT22;27586;51.124;4.182;2023-09-19T00:05:34;15.40;99.90
41904;DHT22;27586;51.124;4.182;2023-09-19T00:08:01;15.40;99.90
41904;DHT22;27586;51.124;4.182;2023-09-19T00:10:30;15.30;99.90
41904;DHT22;27586;51.124;4.182;2023-09-19T00:13:03;15.30;99.90
41904;DHT22;27586;51.124;4.182;2023-09-19T00:15:41;15.30;99.90
41904;DHT22;27586;51.124;4.182;2023-09-19T00:18:07;15.30;99.90
41904;DHT22;27586;51.124;4.182;2023-09-19T00:20:36;15.20;99.90
41904;DHT22;27586;51.124;4.182;2023-09-19T00:23:02;15.20;99.90
41904;DHT22;27586;51.124;4.182;2023-09-19T00:25:35;15.00;99.90
41904;DHT22;27586;51.124;4.182;2023-09-19T00:28:01;15.10;99.90
41904;DHT22;27586;51.124;4.182;2023-09-19T00:30:27;15.00;99.90
41904;DHT22;27586;51.124;4.182;2023-09-19T00:32:52;15.20;99.90
41904;DHT22;27586;51.124;4.182;2023-09-19T00:35:18;15.10;99.90
41904;DHT22;27586;51.124;4.182;2023-09-19T00:37:50;15.10;99.90
41904;DHT22;27586;51.124;4.182;2023-09-19T00:40:16;14.90;99.90
41904;DHT22;27586;51.124;4.182;2023-09-19T00:42:43;14.90;99.90
41904;DHT22;27586;51.124;4.182;2023-09-19T00:45:10;14.90;99.90
41904;DHT22;27586;51.124;4.182;2023-09-19T00:47:38;14.80;99.90
41904;DHT22;27586;51.124;4.182;2023-09-19T00:50:05;14.70;99.90
41904;DHT22;27586;51.124;4.182;2023-09-19T00:52:37;14.90;99.90
41904;DHT22;27586;51.124;4.182;2023-09-19T00:55:05;14.80;99.90
41904;DHT22;27586;51.124;4.182;2023-09-19T00:57:31;14.80;99.90
41904;DHT22;27586;51.124;4.182;2023-09-19T00:59:58;14.80;99.90
41904;DHT22;27586;51.124;4.182;2023-09-19T01:02:25;14.70;99.90
41904;DHT22;27586;51.124;4.182;2023-09-19T01:04:54;14.80;99.90
41904;DHT22;27586;51.124;4.182;2023-09-19T01:07:20;14.80;99.90
41904;DHT22;27586;51.124;4.182;2023-09-19T01:09:48;14.80;99.90
41904;DHT22;27586;51.124;4.182;2023-09-19T01:12:16;14.80;99.90
41904;DHT22;27586;51.124;4.182;2023-09-19T01:14:56;14.80;99.90
41904;DHT22;27586;51.124;4.182;2023-09-19T01:20:53;14.80;99.90
41904;DHT22;27586;51.124;4.182;2023-09-19T01:26:06;14.70;99.90
41904;DHT22;27586;51.124;4.182;2023-09-19T01:31:17;14.70;99.90
41904;DHT22;27586;51.124;4.182;2023-09-19T01:34:01;14.70;99.90
41904;DHT22;27586;51.124;4.182;2023-09-19T01:36:34;14.80;99.90
41904;DHT22;27586;51.124;4.182;2023-09-19T01:39:03;14.80;99.90
41904;DHT22;27586;51.124;4.182;2023-09-19T01:41:56;14.80;99.90
41904;DHT22;27586;51.124;4.182;2023-09-19T01:44:43;14.80;99.90
41904;DHT22;27586;51.124;4.182;2023-09-19T01:47:26;14.90;99.90
41904;DHT22;27586;51.124;4.182;2023-09-19T01:50:17;14.90;99.90
41904;DHT22;27586;51.124;4.182;2023-09-19T01:52:49;14.90;99.90
41904;DHT22;27586;51.124;4.182;2023-09-19T01:55:22;14.80;99.90
41904;DHT22;27586;51.124;4.182;2023-09-19T01:58:04;14.80;99.90
41904;DHT22;27586;51.124;4.182;2023-09-19T02:00:35;14.90;99.90
41904;DHT22;27586;51.124;4.182;2023-09-19T02:03:08;14.70;99.90
41904;DHT22;27586;51.124;4.182;2023-09-19T02:05:34;14.70;99.90
41904;DHT22;27586;51.124;4.182;2023-09-19T02:08:00;14.70;99.90
41904;DHT22;27586;51.124;4.182;2023-09-19T02:10:26;14.70;99.90
41904;DHT22;27586;51.124;4.182;2023-09-19T02:12:51;14.70;99.90
41904;DHT22;27586;51.124;4.182;2023-09-19T02:15:18;14.70;99.90
41904;DHT22;27586;51.124;4.182;2023-09-19T02:17:43;14.70;99.90
41904;DHT22;27586;51.124;4.182;2023-09-19T02:20:11;14.70;99.90
41904;DHT22;27586;51.124;4.182;2023-09-19T02:22:41;14.70;99.90
41904;DHT22;27586;51.124;4.182;2023-09-19T02:25:07;14.70;99.90
41904;DHT22;27586;51.124;4.182;2023-09-19T02:27:33;14.80;99.90
41904;DHT22;27586;51.124;4.182;2023-09-19T02:29:59;14.80;99.90
41904;DHT22;27586;51.124;4.182;2023-09-19T02:32:27;14.70;99.90
41904;DHT22;27586;51.124;4.182;2023-09-19T02:34:55;14.70;99.90
41904;DHT22;27586;51.124;4.182;2023-09-19T02:37:21;14.80;99.90
41904;DHT22;27586;51.124;4.182;2023-09-19T02:39:47;14.80;99.90
41904;DHT22;27586;51.124;4.182;2023-09-19T02:42:12;14.80;99.90
41904;DHT22;27586;51.124;4.182;2023-09-19T02:44:38;14.80;99.90
41904;DHT22;27586;51.124;4.182;2023-09-19T02:47:05;14.80;99.90
41904;DHT22;27586;51.124;4.182;2023-09-19T02:49:31;14.90;99.90
41904;DHT22;27586;51.124;4.182;2023-09-19T02:51:56;15.00;99.90
41904;DHT22;27586;51.124;4.182;2023-09-19T02:54:24;15.00;99.90
41904;DHT22;27586;51.124;4.182;2023-09-19T02:56:50;15.00;99.90
41904;DHT22;27586;51.124;4.182;2023-09-19T02:59:15;15.10;99.90
41904;DHT22;27586;51.124;4.182;2023-09-19T03:01:43;15.00;99.90
41904;DHT22;27586;51.124;4.182;2023-09-19T03:04:09;15.00;99.90
41904;DHT22;27586;51.124;4.182;2023-09-19T03:06:37;15.00;99.90
41904;DHT22;27586;51.124;4.182;2023-09-19T03:09:04;15.20;99.90
41904;DHT22;27586;51.124;4.182;2023-09-19T03:11:38;15.20;99.90
41904;DHT22;27586;51.124;4.182;2023-09-19T03:14:05;15.10;99.90
41904;DHT22;27586;51.124;4.182;2023-09-19T03:16:31;15.20;99.90
41904;DHT22;27586;51.124;4.182;2023-09-19T03:18:57;15.20;99.90
41904;DHT22;27586;51.124;4.182;2023-09-19T03:21:25;15.20;99.90
41904;DHT22;27586;51.124;4.182;2023-09-19T03:23:51;15.20;99.90
41904;DHT22;27586;51.124;4.182;2023-09-19T03:26:16;15.20;99.90
41904;DHT22;27586;51.124;4.182;2023-09-19T03:28:43;15.10;99.90
41904;DHT22;27586;51.124;4.182;2023-09-19T03:31:09;15.00;99.90
41904;DHT22;27586;51.124;4.182;2023-09-19T03:33:35;15.00;99.90
41904;DHT22;27586;51.124;4.182;2023-09-19T03:36:02;15.10;99.90
41904;DHT22;27586;51.124;4.182;2023-09-19T03:38:31;14.90;99.90
41904;DHT22;27586;51.124;4.182;2023-09-19T03:40:58;14.80;99.90
41904;DHT22;27586;51.124;4.182;2023-09-19T03:43:24;14.90;99.90
41904;DHT22;27586;51.124;4.182;2023-09-19T03:45:50;14.90;99.90
41904;DHT22;27586;51.124;4.182;2023-09-19T03:48:16;14.90;99.90
41904;DHT22;27586;51.124;4.182;2023-09-19T03:50:42;15.00;99.90
41904;DHT22;27586;51.124;4.182;2023-09-19T03:53:09;15.00;99.90
41904;DHT22;27586;51.124;4.182;2023-09-19T03:55:35;14.90;99.90
41904;DHT22;27586;51.124;4.182;2023-09-19T03:58:01;14.80;99.90
41904;DHT22;27586;51.124;4.182;2023-09-19T04:00:27;15.00;99.90
41904;DHT22;27586;51.124;4.182;2023-09-19T04:02:54;14.90;99.90
41904;DHT22;27586;51.124;4.182;2023-09-19T04:05:22;14.90;99.90
41904;DHT22;27586;51.124;4.182;2023-09-19T04:07:48;14.90;99.90
41904;DHT22;27586;51.124;4.182;2023-09-19T04:10:14;15.00;99.90
41904;DHT22;27586;51.124;4.182;2023-09-19T04:12:40;15.00;99.90
41904;DHT22;27586;51.124;4.182;2023-09-19T04:15:09;14.90;99.90
41904;DHT22;27586;51.124;4.182;2023-09-19T04:17:38;14.80;99.90
41904;DHT22;27586;51.124;4.182;2023-09-19T04:20:05;14.80;99.90
41904;DHT22;27586;51.124;4.182;2023-09-19T04:22:32;14.80;99.90
41904;DHT22;27586;51.124;4.182;2023-09-19T04:24:57;14.80;99.90
41904;DHT22;27586;51.124;4.182;2023-09-19T04:27:23;14.70;99.90
41904;DHT22;27586;51.124;4.182;2023-09-19T04:29:49;14.60;99.90
41904;DHT22;27586;51.124;4.182;2023-09-19T04:32:18;14.70;99.90
41904;DHT22;27586;51.124;4.182;2023-09-19T04:34:44;14.70;99.90
41904;DHT22;27586;51.124;4.182;2023-09-19T04:37:09;14.60;99.90
41904;DHT22;27586;51.124;4.182;2023-09-19T04:39:36;14.60;99.90
41904;DHT22;27586;51.124;4.182;2023-09-19T04:42:02;14.60;99.90
41904;DHT22;27586;51.124;4.182;2023-09-19T04:44:28;14.50;99.90
41904;DHT22;27586;51.124;4.182;2023-09-19T04:46:54;14.50;99.90
41904;DHT22;27586;51.124;4.182;2023-09-19T04:49:20;14.50;99.90
41904;DHT22;27586;51.124;4.182;2023-09-19T04:51:45;14.50;99.90
41904;DHT22;27586;51.124;4.182;2023-09-19T04:54:12;14.50;99.90
41904;DHT22;27586;51.124;4.182;2023-09-19T04:56:38;14.50;99.90
41904;DHT22;27586;51.124;4.182;2023-09-19T04:59:05;14.50;99.90
41904;DHT22;27586;51.124;4.182;2023-09-19T05:01:31;14.60;99.90
41904;DHT22;27586;51.124;4.182;2023-09-19T05:03:58;14.50;99.90
41904;DHT22;27586;51.124;4.182;2023-09-19T05:06:24;14.60;99.90
41904;DHT22;27586;51.124;4.182;2023-09-19T05:08:52;14.50;99.90
41904;DHT22;27586;51.124;4.182;2023-09-19T05:11:21;14.50;99.90
41904;DHT22;27586;51.124;4.182;2023-09-19T05:13:48;14.50;99.90
41904;DHT22;27586;51.124;4.182;2023-09-19T05:16:18;14.50;99.90
41904;DHT22;27586;51.124;4.182;2023-09-19T05:18:44;14.60;99.90
41904;DHT22;27586;51.124;4.182;2023-09-19T05:21:10;14.50;99.90
41904;DHT22;27586;51.124;4.182;2023-09-19T05:23:36;14.50;99.90
41904;DHT22;27586;51.124;4.182;2023-09-19T05:26:02;14.50;99.90
41904;DHT22;27586;51.124;4.182;2023-09-19T05:28:29;14.40;99.90
41904;DHT22;27586;51.124;4.182;2023-09-19T05:30:55;14.40;99.90
41904;DHT22;27586;51.124;4.182;2023-09-19T05:33:21;14.40;99.90
41904;DHT22;27586;51.124;4.182;2023-09-19T05:35:48;14.30;99.90
41904;DHT22;27586;51.124;4.182;2023-09-19T05:38:13;14.40;99.90
41904;DHT22;27586;51.124;4.182;2023-09-19T05:40:41;14.50;99.90
41904;DHT22;27586;51.124;4.182;2023-09-19T05:43:08;14.40;99.90
41904;DHT22;27586;51.124;4.182;2023-09-19T05:45:37;14.40;99.90
41904;DHT22;27586;51.124;4.182;2023-09-19T05:48:13;14.50;99.90
41904;DHT22;27586;51.124;4.182;2023-09-19T05:50:41;14.50;99.90
41904;DHT22;27586;51.124;4.182;2023-09-19T05:53:07;14.40;99.90
41904;DHT22;27586;51.124;4.182;2023-09-19T05:55:33;14.40;99.90
41904;DHT22;27586;51.124;4.182;2023-09-19T05:57:59;14.60;99.90
41904;DHT22;27586;51.124;4.182;2023-09-19T06:00:25;14.60;99.90
41904;DHT22;27586;51.124;4.182;2023-09-19T06:02:57;14.60;99.90
41904;DHT22;27586;51.124;4.182;2023-09-19T06:05:24;14.50;99.90
41904;DHT22;27586;51.124;4.182;2023-09-19T06:07:52;14.60;99.90
41904;DHT22;27586;51.124;4.182;2023-09-19T06:10:18;14.70;99.90
41904;DHT22;27586;51.124;4.182;2023-09-19T06:12:46;14.70;99.90
41904;DHT22;27586;51.124;4.182;2023-09-19T06:15:13;14.60;99.90
41904;DHT22;27586;51.124;4.182;2023-09-19T06:17:52;14.60;99.90
41904;DHT22;27586;51.124;4.182;2023-09-19T06:20:20;14.70;99.90
41904;DHT22;27586;51.124;4.182;2023-09-19T06:22:48;14.70;99.90
41904;DHT22;27586;51.124;4.182;2023-09-19T06:25:15;14.70;99.90
41904;DHT22;27586;51.124;4.182;2023-09-19T06:27:48;14.90;99.90
41904;DHT22;27586;51.124;4.182;2023-09-19T06:30:14;14.90;99.90
41904;DHT22;27586;51.124;4.182;2023-09-19T06:32:41;15.00;99.90
41904;DHT22;27586;51.124;4.182;2023-09-19T06:35:14;15.00;99.90
41904;DHT22;27586;51.124;4.182;2023-09-19T06:37:40;15.00;99.90
41904;DHT22;27586;51.124;4.182;2023-09-19T06:40:11;15.10;99.90
41904;DHT22;27586;51.124;4.182;2023-09-19T06:42:44;15.00;99.90
41904;DHT22;27586;51.124;4.182;2023-09-19T06:45:11;15.10;99.90
41904;DHT22;27586;51.124;4.182;2023-09-19T06:47:39;15.10;99.90
41904;DHT22;27586;51.124;4.182;2023-09-19T06:50:05;15.10;99.90
41904;DHT22;27586;51.124;4.182;2023-09-19T06:52:34;15.20;99.90
41904;DHT22;27586;51.124;4.182;2023-09-19T06:55:00;15.20;99.90
41904;DHT22;27586;51.124;4.182;2023-09-19T06:57:28;15.30;99.90
41904;DHT22;27586;51.124;4.182;2023-09-19T06:59:54;15.30;99.90
41904;DHT22;27586;51.124;4.182;2023-09-19T07:02:20;15.30;99.90
41904;DHT22;27586;51.124;4.182;2023-09-19T07:04:47;15.20;99.90
41904;DHT22;27586;51.124;4.182;2023-09-19T07:07:13;15.30;99.90
41904;DHT22;27586;51.124;4.182;2023-09-19T07:09:39;15.40;99.90
41904;DHT22;27586;51.124;4.182;2023-09-19T07:12:05;15.40;99.90
41904;DHT22;27586;51.124;4.182;2023-09-19T07:14:31;15.40;99.90
41904;DHT22;27586;51.124;4.182;2023-09-19T07:16:58;15.50;99.90
41904;DHT22;27586;51.124;4.182;2023-09-19T07:19:25;15.50;99.90
41904;DHT22;27586;51.124;4.182;2023-09-19T07:21:53;15.50;99.90
41904;DHT22;27586;51.124;4.182;2023-09-19T07:24:19;15.60;99.90
41904;DHT22;27586;51.124;4.182;2023-09-19T07:26:47;15.70;99.90
41904;DHT22;27586;51.124;4.182;2023-09-19T07:29:14;15.70;99.90
41904;DHT22;27586;51.124;4.182;2023-09-19T07:31:39;15.70;99.90
41904;DHT22;27586;51.124;4.182;2023-09-19T07:34:05;15.90;99.90
41904;DHT22;27586;51.124;4.182;2023-09-19T07:36:31;16.00;99.90
41904;DHT22;27586;51.124;4.182;2023-09-19T07:38:57;16.10;99.90
41904;DHT22;27586;51.124;4.182;2023-09-19T07:41:24;16.10;99.90
41904;DHT22;27586;51.124;4.182;2023-09-19T07:43:49;16.20;99.90
41904;DHT22;27586;51.124;4.182;2023-09-19T07:46:15;16.20;99.90
41904;DHT22;27586;51.124;4.182;2023-09-19T07:48:41;16.30;99.90
41904;DHT22;27586;51.124;4.182;2023-09-19T07:51:14;16.30;99.90
41904;DHT22;27586;51.124;4.182;2023-09-19T07:53:42;16.30;99.90
41904;DHT22;27586;51.124;4.182;2023-09-19T07:56:09;16.30;99.90
41904;DHT22;27586;51.124;4.182;2023-09-19T07:58:36;16.40;99.90
41904;DHT22;27586;51.124;4.182;2023-09-19T08:01:06;16.40;99.90
41904;DHT22;27586;51.124;4.182;2023-09-19T08:03:35;16.60;99.90
41904;DHT22;27586;51.124;4.182;2023-09-19T08:06:06;16.60;99.90
41904;DHT22;27586;51.124;4.182;2023-09-19T08:08:33;16.60;99.90
41904;DHT22;27586;51.124;4.182;2023-09-19T08:11:05;16.50;99.90
41904;DHT22;27586;51.124;4.182;2023-09-19T08:13:41;16.60;99.90
41904;DHT22;27586;51.124;4.182;2023-09-19T08:16:10;16.70;99.90
41904;DHT22;27586;51.124;4.182;2023-09-19T08:18:37;16.80;99.90
41904;DHT22;27586;51.124;4.182;2023-09-19T08:21:06;17.00;99.90
41904;DHT22;27586;51.124;4.182;2023-09-19T08:23:39;17.10;99.90
41904;DHT22;27586;51.124;4.182;2023-09-19T08:26:05;17.30;99.90
41904;DHT22;27586;51.124;4.182;2023-09-19T08:28:35;17.40;99.90
41904;DHT22;27586;51.124;4.182;2023-09-19T08:31:04;17.50;99.90
41904;DHT22;27586;51.124;4.182;2023-09-19T08:33:32;17.70;99.90
41904;DHT22;27586;51.124;4.182;2023-09-19T08:36:01;17.80;99.90
41904;DHT22;27586;51.124;4.182;2023-09-19T08:38:26;17.90;99.90
41904;DHT22;27586;51.124;4.182;2023-09-19T08:41:06;17.90;99.90
41904;DHT22;27586;51.124;4.182;2023-09-19T08:43:33;17.90;99.90
41904;DHT22;27586;51.124;4.182;2023-09-19T08:48:31;17.90;99.90
41904;DHT22;27586;51.124;4.182;2023-09-19T08:51:07;18.00;99.90
41904;DHT22;27586;51.124;4.182;2023-09-19T08:53:50;18.00;99.90
41904;DHT22;27586;51.124;4.182;2023-09-19T08:56:18;18.00;99.90
41904;DHT22;27586;51.124;4.182;2023-09-19T08:58:59;18.10;99.90
41904;DHT22;27586;51.124;4.182;2023-09-19T09:01:28;18.00;99.90
41904;DHT22;27586;51.124;4.182;2023-09-19T09:03:55;17.90;99.90
41904;DHT22;27586;51.124;4.182;2023-09-19T09:06:22;17.90;99.90
41904;DHT22;27586;51.124;4.182;2023-09-19T09:08:50;17.90;99.90
41904;DHT22;27586;51.124;4.182;2023-09-19T09:11:16;17.90;99.90
41904;DHT22;27586;51.124;4.182;2023-09-19T09:13:47;18.00;99.90
41904;DHT22;27586;51.124;4.182;2023-09-19T09:16:14;17.90;99.90
41904;DHT22;27586;51.124;4.182;2023-09-19T09:18:48;18.00;99.90
41904;DHT22;27586;51.124;4.182;2023-09-19T09:21:20;18.00;99.90
41904;DHT22;27586;51.124;4.182;2023-09-19T09:23:47;18.10;99.90
41904;DHT22;27586;51.124;4.182;2023-09-19T09:26:13;18.00;99.90
41904;DHT22;27586;51.124;4.182;2023-09-19T09:28:45;18.00;99.90
41904;DHT22;27586;51.124;4.182;2023-09-19T09:31:24;17.90;99.90
41904;DHT22;27586;51.124;4.182;2023-09-19T09:33:56;17.90;99.90
41904;DHT22;27586;51.124;4.182;2023-09-19T09:36:39;17.90;99.90
41904;DHT22;27586;51.124;4.182;2023-09-19T09:39:07;17.90;99.90
41904;DHT22;27586;51.124;4.182;2023-09-19T09:41:43;18.00;99.90
41904;DHT22;27586;51.124;4.182;2023-09-19T09:44:14;18.10;99.90
41904;DHT22;27586;51.124;4.182;2023-09-19T09:46:47;18.20;99.90
41904;DHT22;27586;51.124;4.182;2023-09-19T09:49:35;18.30;99.90
41904;DHT22;27586;51.124;4.182;2023-09-19T09:54:33;18.30;99.90
41904;DHT22;27586;51.124;4.182;2023-09-19T09:57:05;18.50;99.90
41904;DHT22;27586;51.124;4.182;2023-09-19T10:02:16;18.70;99.90
41904;DHT22;27586;51.124;4.182;2023-09-19T10:04:58;18.90;99.90
41904;DHT22;27586;51.124;4.182;2023-09-19T10:07:31;19.00;99.90
41904;DHT22;27586;51.124;4.182;2023-09-19T10:10:08;19.20;99.90
41904;DHT22;27586;51.124;4.182;2023-09-19T10:12:49;19.20;99.90
41904;DHT22;27586;51.124;4.182;2023-09-19T10:15:18;19.20;99.90
41904;DHT22;27586;51.124;4.182;2023-09-19T10:17:50;19.40;99.90
41904;DHT22;27586;51.124;4.182;2023-09-19T10:20:21;19.50;99.90
41904;DHT22;27586;51.124;4.182;2023-09-19T10:22:59;19.50;99.90
41904;DHT22;27586;51.124;4.182;2023-09-19T10:25:26;19.50;99.90
41904;DHT22;27586;51.124;4.182;2023-09-19T10:28:02;19.70;99.90
41904;DHT22;27586;51.124;4.182;2023-09-19T10:30:31;19.70;99.90
41904;DHT22;27586;51.124;4.182;2023-09-19T10:33:03;19.70;99.90
41904;DHT22;27586;51.124;4.182;2023-09-19T10:35:32;19.90;99.90
41904;DHT22;27586;51.124;4.182;2023-09-19T10:38:03;20.00;99.90
41904;DHT22;27586;51.124;4.182;2023-09-19T10:40:29;20.10;99.90
41904;DHT22;27586;51.124;4.182;2023-09-19T10:43:03;20.20;99.90
41904;DHT22;27586;51.124;4.182;2023-09-19T10:45:32;20.20;99.90
41904;DHT22;27586;51.124;4.182;2023-09-19T10:47:58;20.10;99.90
41904;DHT22;27586;51.124;4.182;2023-09-19T10:50:24;20.30;99.90
41904;DHT22;27586;51.124;4.182;2023-09-19T10:52:52;20.20;99.90
41904;DHT22;27586;51.124;4.182;2023-09-19T10:55:25;20.40;99.90
41904;DHT22;27586;51.124;4.182;2023-09-19T10:57:53;20.50;99.90
41904;DHT22;27586;51.124;4.182;2023-09-19T11:00:19;20.40;99.90
41904;DHT22;27586;51.124;4.182;2023-09-19T11:03:20;20.40;99.90
41904;DHT22;27586;51.124;4.182;2023-09-19T11:06:03;20.10;99.90
41904;DHT22;27586;51.124;4.182;2023-09-19T11:30:39;20.40;99.90
41904;DHT22;27586;51.124;4.182;2023-09-19T11:36:11;20.20;99.90
41904;DHT22;27586;51.124;4.182;2023-09-19T11:46:30;19.90;99.90
41904;DHT22;27586;51.124;4.182;2023-09-19T11:49:05;19.80;99.90
41904;DHT22;27586;51.124;4.182;2023-09-19T11:51:42;19.70;99.90
41904;DHT22;27586;51.124;4.182;2023-09-19T11:54:13;19.60;99.90
41904;DHT22;27586;51.124;4.182;2023-09-19T11:56:44;19.60;99.90
41904;DHT22;27586;51.124;4.182;2023-09-19T11:59:11;19.70;99.90
41904;DHT22;27586;51.124;4.182;2023-09-19T12:01:39;19.90;99.90
41904;DHT22;27586;51.124;4.182;2023-09-19T12:04:11;20.00;99.90
41904;DHT22;27586;51.124;4.182;2023-09-19T12:06:37;20.10;99.90
41904;DHT22;27586;51.124;4.182;2023-09-19T12:09:04;20.20;99.90
41904;DHT22;27586;51.124;4.182;2023-09-19T12:11:42;20.20;99.90
41904;DHT22;27586;51.124;4.182;2023-09-19T12:14:09;20.40;99.90
41904;DHT22;27586;51.124;4.182;2023-09-19T12:16:35;20.40;99.90
41904;DHT22;27586;51.124;4.182;2023-09-19T12:19:21;20.40;99.90
41904;DHT22;27586;51.124;4.182;2023-09-19T12:21:57;20.20;99.90
41904;DHT22;27586;51.124;4.182;2023-09-19T12:24:25;20.10;99.90
41904;DHT22;27586;51.124;4.182;2023-09-19T12:26:59;20.00;99.90
41904;DHT22;27586;51.124;4.182;2023-09-19T12:29:30;20.00;99.90
41904;DHT22;27586;51.124;4.182;2023-09-19T12:31:59;19.90;99.90
41904;DHT22;27586;51.124;4.182;2023-09-19T12:34:32;19.60;99.90
41904;DHT22;27586;51.124;4.182;2023-09-19T12:42:03;19.50;99.90
41904;DHT22;27586;51.124;4.182;2023-09-19T12:44:35;19.40;99.90
41904;DHT22;27586;51.124;4.182;2023-09-19T12:47:17;19.30;99.90
41904;DHT22;27586;51.124;4.182;2023-09-19T12:52:40;19.40;99.90
41904;DHT22;27586;51.124;4.182;2023-09-19T12:55:06;19.30;99.90
41904;DHT22;27586;51.124;4.182;2023-09-19T12:57:34;19.30;99.90
41904;DHT22;27586;51.124;4.182;2023-09-19T13:00:03;19.40;99.90
41904;DHT22;27586;51.124;4.182;2023-09-19T13:03:15;19.50;99.90
41904;DHT22;27586;51.124;4.182;2023-09-19T13:05:58;19.60;99.90
41904;DHT22;27586;51.124;4.182;2023-09-19T13:08:33;19.50;99.90
41904;DHT22;27586;51.124;4.182;2023-09-19T13:11:08;19.50;99.90
41904;DHT22;27586;51.124;4.182;2023-09-19T13:14:13;19.60;99.90
41904;DHT22;27586;51.124;4.182;2023-09-19T13:19:41;19.70;99.90
41904;DHT22;27586;51.124;4.182;2023-09-19T13:22:44;19.70;99.90
41904;DHT22;27586;51.124;4.182;2023-09-19T13:25:23;19.60;99.90
41904;DHT22;27586;51.124;4.182;2023-09-19T13:27:54;19.70;99.90
41904;DHT22;27586;51.124;4.182;2023-09-19T13:30:22;19.70;99.90
41904;DHT22;27586;51.124;4.182;2023-09-19T13:32:48;19.70;99.90
41904;DHT22;27586;51.124;4.182;2023-09-19T13:35:15;19.70;99.90
41904;DHT22;27586;51.124;4.182;2023-09-19T13:37:42;19.60;99.90
41904;DHT22;27586;51.124;4.182;2023-09-19T13:40:12;19.60;99.90
41904;DHT22;27586;51.124;4.182;2023-09-19T13:42:39;19.70;99.90
41904;DHT22;27586;51.124;4.182;2023-09-19T13:45:05;19.70;99.90
41904;DHT22;27586;51.124;4.182;2023-09-19T13:47:32;19.90;99.90
41904;DHT22;27586;51.124;4.182;2023-09-19T13:49:58;19.90;99.90
41904;DHT22;27586;51.124;4.182;2023-09-19T13:52:24;19.90;99.90
41904;DHT22;27586;51.124;4.182;2023-09-19T13:54:54;19.90;99.90
41904;DHT22;27586;51.124;4.182;2023-09-19T13:57:25;19.80;99.90
41904;DHT22;27586;51.124;4.182;2023-09-19T13:59:53;19.90;99.90
41904;DHT22;27586;51.124;4.182;2023-09-19T14:02:22;19.80;99.90
41904;DHT22;27586;51.124;4.182;2023-09-19T14:04:49;19.90;99.90
41904;DHT22;27586;51.124;4.182;2023-09-19T14:07:15;20.00;99.90
41904;DHT22;27586;51.124;4.182;2023-09-19T14:09:43;19.90;99.90
41904;DHT22;27586;51.124;4.182;2023-09-19T14:12:08;19.90;99.90
41904;DHT22;27586;51.124;4.182;2023-09-19T14:14:35;19.90;99.90
41904;DHT22;27586;51.124;4.182;2023-09-19T14:17:00;19.80;99.90
41904;DHT22;27586;51.124;4.182;2023-09-19T14:19:35;19.80;99.90
41904;DHT22;27586;51.124;4.182;2023-09-19T14:22:02;19.80;99.90
41904;DHT22;27586;51.124;4.182;2023-09-19T14:24:33;19.90;99.90
41904;DHT22;27586;51.124;4.182;2023-09-19T14:26:58;19.90;99.90
41904;DHT22;27586;51.124;4.182;2023-09-19T14:29:25;19.90;99.90
41904;DHT22;27586;51.124;4.182;2023-09-19T14:31:50;19.80;99.90
41904;DHT22;27586;51.124;4.182;2023-09-19T14:34:17;19.80;99.90
41904;DHT22;27586;51.124;4.182;2023-09-19T14:36:43;19.70;99.90
41904;DHT22;27586;51.124;4.182;2023-09-19T14:39:08;19.60;99.90
41904;DHT22;27586;51.124;4.182;2023-09-19T14:41:34;19.70;99.90
41904;DHT22;27586;51.124;4.182;2023-09-19T14:44:02;19.70;99.90
41904;DHT22;27586;51.124;4.182;2023-09-19T14:46:28;19.60;99.90
41904;DHT22;27586;51.124;4.182;2023-09-19T14:48:56;19.50;99.90
41904;DHT22;27586;51.124;4.182;2023-09-19T14:51:25;19.50;99.90
41904;DHT22;27586;51.124;4.182;2023-09-19T14:53:50;19.40;99.90
41904;DHT22;27586;51.124;4.182;2023-09-19T14:56:19;19.40;99.90
41904;DHT22;27586;51.124;4.182;2023-09-19T14:58:45;19.40;99.90
41904;DHT22;27586;51.124;4.182;2023-09-19T15:01:13;19.30;99.90
41904;DHT22;27586;51.124;4.182;2023-09-19T15:03:40;19.30;99.90
41904;DHT22;27586;51.124;4.182;2023-09-19T15:06:09;19.30;99.90
41904;DHT22;27586;51.124;4.182;2023-09-19T15:08:36;19.20;99.90
41904;DHT22;27586;51.124;4.182;2023-09-19T15:11:07;19.30;99.90
41904;DHT22;27586;51.124;4.182;2023-09-19T15:13:34;19.30;99.90
41904;DHT22;27586;51.124;4.182;2023-09-19T15:16:04;19.40;99.90
41904;DHT22;27586;51.124;4.182;2023-09-19T15:18:31;19.20;99.90
41904;DHT22;27586;51.124;4.182;2023-09-19T15:21:02;19.20;99.90
41904;DHT22;27586;51.124;4.182;2023-09-19T15:23:35;19.10;99.90
41904;DHT22;27586;51.124;4.182;2023-09-19T15:26:09;19.20;99.90
41904;DHT22;27586;51.124;4.182;2023-09-19T15:28:37;19.30;99.90
41904;DHT22;27586;51.124;4.182;2023-09-19T15:31:10;19.40;99.90
41904;DHT22;27586;51.124;4.182;2023-09-19T15:33:36;19.40;99.90
41904;DHT22;27586;51.124;4.182;2023-09-19T15:36:03;19.40;99.90
41904;DHT22;27586;51.124;4.182;2023-09-19T15:38:30;19.40;99.90
41904;DHT22;27586;51.124;4.182;2023-09-19T15:40:57;19.30;99.90
41904;DHT22;27586;51.124;4.182;2023-09-19T15:43:23;19.30;99.90
41904;DHT22;27586;51.124;4.182;2023-09-19T15:45:49;19.30;99.90
41904;DHT22;27586;51.124;4.182;2023-09-19T15:48:15;19.40;99.90
41904;DHT22;27586;51.124;4.182;2023-09-19T15:50:42;19.20;99.90
41904;DHT22;27586;51.124;4.182;2023-09-19T15:53:10;19.20;99.90
41904;DHT22;27586;51.124;4.182;2023-09-19T15:55:40;19.20;99.90
41904;DHT22;27586;51.124;4.182;2023-09-19T15:58:07;19.10;99.90
41904;DHT22;27586;51.124;4.182;2023-09-19T16:00:33;19.10;99.90
41904;DHT22;27586;51.124;4.182;2023-09-19T16:03:02;19.10;99.90
41904;DHT22;27586;51.124;4.182;2023-09-19T16:05:28;19.10;99.90
41904;DHT22;27586;51.124;4.182;2023-09-19T16:07:53;19.10;99.90
41904;DHT22;27586;51.124;4.182;2023-09-19T16:10:19;19.10;99.90
41904;DHT22;27586;51.124;4.182;2023-09-19T16:12:46;19.00;99.90
41904;DHT22;27586;51.124;4.182;2023-09-19T16:15:11;19.00;99.90
41904;DHT22;27586;51.124;4.182;2023-09-19T16:17:39;19.00;99.90
41904;DHT22;27586;51.124;4.182;2023-09-19T16:20:05;19.00;99.90
41904;DHT22;27586;51.124;4.182;2023-09-19T16:22:38;19.00;99.90
41904;DHT22;27586;51.124;4.182;2023-09-19T16:25:05;19.00;99.90
41904;DHT22;27586;51.124;4.182;2023-09-19T16:27:31;19.00;99.90
41904;DHT22;27586;51.124;4.182;2023-09-19T16:29:57;19.00;99.90
41904;DHT22;27586;51.124;4.182;2023-09-19T16:32:22;19.10;99.90
41904;DHT22;27586;51.124;4.182;2023-09-19T16:34:48;19.10;99.90
41904;DHT22;27586;51.124;4.182;2023-09-19T16:37:14;19.00;99.90
41904;DHT22;27586;51.124;4.182;2023-09-19T16:39:40;19.00;99.90
41904;DHT22;27586;51.124;4.182;2023-09-19T16:42:06;19.10;99.90